createdAt,value
2018-05-02T00:02:56.275Z,1013.2
2018-05-02T00:07:56.157Z,1013.1
2018-05-02T00:12:56.286Z,1012.9
2018-05-02T00:18:08.996Z,1012.9
2018-05-02T00:23:08.549Z,1012.9
2018-05-02T00:28:08.718Z,1012.9
2018-05-02T00:33:08.485Z,1012.9
2018-05-02T00:38:08.519Z,1012.9
2018-05-02T00:43:08.455Z,1012.8
2018-05-02T00:48:08.510Z,1012.8
2018-05-02T00:53:12.099Z,1012.9
2018-05-02T00:58:12.017Z,1012.8
2018-05-02T01:03:24.876Z,1012.6
2018-05-02T01:08:24.613Z,1012.7
2018-05-02T01:13:24.596Z,1012.7
2018-05-02T01:18:24.742Z,1012.6
2018-05-02T01:23:24.816Z,1012.7
2018-05-02T01:28:24.820Z,1012.7
2018-05-02T01:33:24.749Z,1012.6
2018-05-02T01:38:25.123Z,1012.6
2018-05-02T01:43:25.045Z,1012.7
2018-05-02T01:48:37.301Z,1012.6
2018-05-02T01:53:36.969Z,1012.7
2018-05-02T01:58:37.222Z,1012.7
2018-05-02T02:03:37.137Z,1012.6
2018-05-02T02:08:37.149Z,1012.8
2018-05-02T02:13:37.221Z,1012.7
2018-05-02T02:18:37.253Z,1012.6
2018-05-02T02:23:37.320Z,1012.6
2018-05-02T02:28:37.242Z,1012.9
2018-05-02T02:33:49.760Z,1012.8
2018-05-02T02:38:49.673Z,1012.7
2018-05-02T02:43:49.486Z,1012.8
2018-05-02T02:48:49.675Z,1012.6
2018-05-02T02:53:49.654Z,1012.6
2018-05-02T02:58:49.483Z,1012.6
2018-05-02T03:03:49.489Z,1012.7
2018-05-02T03:08:49.675Z,1012.7
2018-05-02T03:13:49.609Z,1012.7
2018-05-02T03:18:49.634Z,1012.5
2018-05-02T03:23:49.678Z,1012.7
2018-05-02T03:28:49.713Z,1012.7
2018-05-02T03:33:50.852Z,1012.7
2018-05-02T03:38:50.638Z,1012.6
2018-05-02T03:44:03.034Z,1012.5
2018-05-02T03:49:02.976Z,1012.6
2018-05-02T03:54:02.910Z,1012.6
2018-05-02T03:59:02.928Z,1012.6
2018-05-02T04:04:02.956Z,1012.6
2018-05-02T04:09:02.750Z,1012.6
2018-05-02T04:14:02.960Z,1012.7
2018-05-02T04:19:03.553Z,1012.6
2018-05-02T04:24:03.468Z,1012.5
2018-05-02T04:29:16.299Z,1012.5
2018-05-02T04:34:16.109Z,1012.6
2018-05-02T04:39:16.268Z,1012.6
2018-05-02T04:44:16.026Z,1012.6
2018-05-02T04:49:16.026Z,1012.6
2018-05-02T04:54:16.014Z,1012.6
2018-05-02T04:59:16.023Z,1012.6
2018-05-02T05:04:16.139Z,1012.6
2018-05-02T05:09:16.215Z,1012.6
2018-05-02T05:14:16.057Z,1012.6
2018-05-02T05:19:16.027Z,1012.7
2018-05-02T05:24:16.196Z,1012.6
2018-05-02T05:29:18.476Z,1012.6
2018-05-02T05:34:18.212Z,1012.7
2018-05-02T05:39:30.804Z,1012.7
2018-05-02T05:44:30.713Z,1012.6
2018-05-02T05:49:30.544Z,1012.5
2018-05-02T05:54:31.376Z,1012.6
2018-05-02T05:59:30.531Z,1012.5
2018-05-02T06:04:30.724Z,1012.4
2018-05-02T06:09:30.764Z,1012.4
2018-05-02T06:14:30.955Z,1012.3
2018-05-02T06:19:30.677Z,1012.3
2018-05-02T06:24:44.229Z,1012.3
2018-05-02T06:29:44.084Z,1012.3
2018-05-02T06:34:44.141Z,1012.2
2018-05-02T06:39:44.185Z,1012.1
2018-05-02T06:44:43.953Z,1012
2018-05-02T06:49:43.938Z,1011.9
2018-05-02T06:54:44.228Z,1011.9
2018-05-02T06:59:43.994Z,1011.6
2018-05-02T07:04:44.105Z,1011.8
2018-05-02T07:09:44.157Z,1011.7
2018-05-02T07:14:44.184Z,1011.5
2018-05-02T07:19:44.099Z,1011.5
2018-05-02T07:24:44.604Z,1011.4
2018-05-02T07:29:44.351Z,1011.4
2018-05-02T07:34:57.116Z,1011.4
2018-05-02T07:39:57.073Z,1011.3
2018-05-02T07:44:57.019Z,1011.3
2018-05-02T07:49:57.020Z,1011.1
2018-05-02T07:54:57.062Z,1011.1
2018-05-02T07:59:56.829Z,1011
2018-05-02T08:04:56.835Z,1011
2018-05-02T08:09:58.236Z,1010.9
2018-05-02T08:14:57.806Z,1010.8
2018-05-02T08:20:10.537Z,1010.7
2018-05-02T08:25:10.493Z,1010.6
2018-05-02T08:30:10.267Z,1010.6
2018-05-02T08:35:10.429Z,1010.6
2018-05-02T08:40:10.512Z,1010.5
2018-05-02T08:45:10.295Z,1010.3
2018-05-02T08:50:10.440Z,1010.3
2018-05-02T08:55:10.474Z,1010.3
2018-05-02T09:00:10.300Z,1010.2
2018-05-02T09:05:10.308Z,1010
2018-05-02T09:10:10.474Z,1010
2018-05-02T09:15:10.304Z,1009.9
2018-05-02T09:20:11.071Z,1009.8
2018-05-02T09:25:10.978Z,1009.7
2018-05-02T09:30:26.477Z,1009.7
2018-05-02T09:35:26.229Z,1009.5
2018-05-02T09:40:26.201Z,1009.5
2018-05-02T09:45:26.371Z,1009.5
2018-05-02T09:50:26.422Z,1009.5
2018-05-02T09:55:26.210Z,1009.2
2018-05-02T10:00:26.366Z,1009.1
2018-05-02T10:05:27.267Z,1009.1
2018-05-02T10:10:27.106Z,1009.1
2018-05-02T10:15:40.128Z,1009
2018-05-02T10:20:39.829Z,1008.9
2018-05-02T10:25:39.956Z,1008.7
2018-05-02T10:30:40.016Z,1008.7
2018-05-02T10:35:39.860Z,1008.6
2018-05-02T10:40:39.814Z,1008.5
2018-05-02T10:45:40.026Z,1008.3
2018-05-02T10:50:40.035Z,1008.3
2018-05-02T10:55:40.023Z,1008.1
2018-05-02T11:00:40.083Z,1008
2018-05-02T11:05:39.873Z,1007.9
2018-05-02T11:10:40.071Z,1007.9
2018-05-02T11:15:42.559Z,1007.9
2018-05-02T11:20:42.435Z,1007.9
2018-05-02T11:25:55.065Z,1007.8
2018-05-02T11:30:54.956Z,1007.8
2018-05-02T11:35:54.784Z,1007.6
2018-05-02T11:40:54.910Z,1007.4
2018-05-02T11:45:54.792Z,1007.2
2018-05-02T11:50:54.769Z,1007
2018-05-02T11:55:54.788Z,1007.1
2018-05-02T12:00:58.961Z,1006.9
2018-05-02T12:05:58.883Z,1006.7
2018-05-02T12:11:11.517Z,1006.6
2018-05-02T12:16:11.585Z,1006.7
2018-05-02T12:21:11.479Z,1006.6
2018-05-02T12:26:11.732Z,1006.6
2018-05-02T12:31:11.405Z,1006.6
2018-05-02T12:36:11.249Z,1006.4
2018-05-02T12:41:11.418Z,1006.4
2018-05-02T12:46:11.440Z,1006.3
2018-05-02T12:51:11.270Z,1006.2
2018-05-02T12:56:11.843Z,1006.2
2018-05-02T13:01:11.565Z,1006.1
2018-05-02T13:06:11.480Z,1005.9
2018-05-02T13:11:12.566Z,1005.9
2018-05-02T13:16:12.437Z,1005.8
2018-05-02T13:21:12.302Z,1005.7
2018-05-02T13:26:12.303Z,1005.7
2018-05-02T13:31:12.491Z,1005.6
2018-05-02T13:36:12.466Z,1005.7
2018-05-02T13:41:12.554Z,1005.6
2018-05-02T13:46:12.499Z,1005.5
2018-05-02T13:51:12.315Z,1005.4
2018-05-02T13:56:12.342Z,1005.4
2018-05-02T14:01:15.126Z,1005.3
2018-05-02T14:06:14.849Z,1005.3
2018-05-02T14:11:27.357Z,1005.3
2018-05-02T14:16:27.072Z,1005.2
2018-05-02T14:21:27.236Z,1005.1
2018-05-02T14:26:27.320Z,1005.1
2018-05-02T14:31:27.193Z,1005
2018-05-02T14:36:27.245Z,1005
2018-05-02T14:41:28.343Z,1004.9
2018-05-02T14:46:29.390Z,1004.9
2018-05-02T14:51:29.099Z,1004.9
2018-05-02T14:56:41.340Z,1004.9
2018-05-02T15:01:41.742Z,1004.9
2018-05-02T15:06:43.552Z,1005.1
2018-05-02T15:11:41.078Z,1005.1
2018-05-02T15:16:41.059Z,1005.1
2018-05-02T15:21:42.504Z,1004.9
2018-05-02T15:26:42.432Z,1004.9
2018-05-02T15:31:42.350Z,1004.7
2018-05-02T15:36:42.258Z,1004.8
2018-05-02T15:41:42.262Z,1004.7
2018-05-02T15:46:42.639Z,1004.7
2018-05-02T15:51:42.522Z,1004.7
2018-05-02T15:56:43.895Z,1004.5
2018-05-02T16:01:43.821Z,1004.6
2018-05-02T16:06:56.344Z,1004.6
2018-05-02T16:11:56.074Z,1004.6
2018-05-02T16:16:56.286Z,1004.6
2018-05-02T16:21:56.078Z,1004.5
2018-05-02T16:26:56.068Z,1004.5
2018-05-02T16:31:56.063Z,1004.5
2018-05-02T16:36:56.071Z,1004.5
2018-05-02T16:41:56.059Z,1004.6
2018-05-02T16:46:56.096Z,1004.6
2018-05-02T16:52:07.829Z,1004.6
2018-05-02T16:57:07.594Z,1004.6
2018-05-02T17:02:07.566Z,1004.6
2018-05-02T17:07:07.549Z,1004.7
2018-05-02T17:12:07.801Z,1004.8
2018-05-02T17:17:07.824Z,1004.8
2018-05-02T17:22:08.238Z,1004.8
2018-05-02T17:27:07.776Z,1004.9
2018-05-02T17:32:08.876Z,1004.9
2018-05-02T17:37:07.811Z,1005.1
2018-05-02T17:42:10.850Z,1005.2
2018-05-02T17:47:07.825Z,1005.1
2018-05-02T17:52:09.029Z,1005.2
2018-05-02T17:57:08.596Z,1005.1
2018-05-02T18:02:21.825Z,1005.3
2018-05-02T18:07:21.536Z,1005.3
2018-05-02T18:12:21.561Z,1005.4
2018-05-02T18:17:21.579Z,1005.6
2018-05-02T18:22:21.584Z,1005.5
2018-05-02T18:27:21.578Z,1005.5
2018-05-02T18:32:21.563Z,1005.6
2018-05-02T18:37:24.094Z,1005.9
2018-05-02T18:42:23.796Z,1005.9
2018-05-02T18:47:34.820Z,1006.1
2018-05-02T18:52:34.568Z,1006.3
2018-05-02T18:57:34.568Z,1006.2
2018-05-02T19:02:34.560Z,1006.2
2018-05-02T19:07:35.113Z,1006.3
2018-05-02T19:12:34.689Z,1006.4
2018-05-02T19:17:35.607Z,1006.3
2018-05-02T19:22:38.592Z,1006.3
2018-05-02T19:27:38.321Z,1006.5
2018-05-02T19:32:50.607Z,1006.5
2018-05-02T19:37:51.876Z,1006.7
2018-05-02T19:42:50.486Z,1006.7
2018-05-02T19:47:50.327Z,1006.7
2018-05-02T19:52:50.296Z,1006.9
2018-05-02T19:57:50.486Z,1006.8
2018-05-02T20:02:50.291Z,1006.8
2018-05-02T20:07:50.775Z,1006.6
2018-05-02T20:12:50.309Z,1006.5
2018-05-02T20:18:02.073Z,1006.6
2018-05-02T20:23:01.836Z,1006.6
2018-05-02T20:28:01.709Z,1006.8
2018-05-02T20:33:01.717Z,1007
2018-05-02T20:38:01.694Z,1007
2018-05-02T20:43:01.703Z,1007
2018-05-02T20:48:01.741Z,1007
2018-05-02T20:53:01.713Z,1006.9
2018-05-02T20:58:01.897Z,1007
2018-05-02T21:03:01.876Z,1007
2018-05-02T21:08:04.176Z,1007.1
2018-05-02T21:13:03.915Z,1007.1
2018-05-02T21:18:03.916Z,1006.9
2018-05-02T21:23:04.145Z,1007
2018-05-02T21:28:04.119Z,1006.9
2018-05-02T21:33:04.110Z,1006.8
2018-05-02T21:38:04.329Z,1006.7
2018-05-02T21:43:07.145Z,1006.9
2018-05-02T21:48:07.045Z,1006.8
2018-05-02T21:53:19.514Z,1007
2018-05-02T21:58:19.283Z,1007.1
2018-05-02T22:03:19.239Z,1007.1
2018-05-02T22:08:19.358Z,1007.1
2018-05-02T22:13:19.414Z,1007.1
2018-05-02T22:18:19.440Z,1007.1
2018-05-02T22:23:19.377Z,1007
2018-05-02T22:28:19.337Z,1007
2018-05-02T22:33:19.594Z,1007
2018-05-02T22:38:31.333Z,1007.1
2018-05-02T22:43:31.171Z,1007.2
2018-05-02T22:48:31.193Z,1007.3
2018-05-02T22:53:31.248Z,1007.3
2018-05-02T22:58:31.295Z,1007.4
2018-05-02T23:03:31.067Z,1007.5
2018-05-02T23:08:31.236Z,1007.6
2018-05-02T23:13:31.272Z,1007.8
2018-05-02T23:18:31.519Z,1007.7
2018-05-02T23:23:31.432Z,1007.8
2018-05-02T23:28:31.484Z,1007.7
2018-05-02T23:33:31.517Z,1007.7
2018-05-02T23:38:32.073Z,1007.7
2018-05-02T23:43:31.995Z,1007.5
2018-05-02T23:48:44.075Z,1007.6
2018-05-02T23:53:44.039Z,1007.6
2018-05-02T23:58:43.812Z,1007.6
